Time;durP1;ratioP1;P1;durP2;ratioP2;P2;SDS_P1;SDS_P2;PMS_P1;PMS_P2;Temp;Humidity;BMP_temperature;BMP_pressure;BME280_temperature;BME280_humidity;BME280_pressure;Samples;Min_cycle;Max_cycle;Signal;HPM_P1;HPM_P2
2021/04/24 00:11:38;;;;;;;5.20;3.58;;;;;;;4.27;59.95;97055.98;1776389;79;21192;-53
2021/04/24 00:14:05;;;;;;;4.55;3.40;;;;;;;4.28;60.50;97062.81;1771475;79;21671;-52
2021/04/24 00:16:33;;;;;;;5.30;3.70;;;;;;;4.31;60.38;97057.53;1747898;80;21155;-52
2021/04/24 00:19:03;;;;;;;4.92;3.80;;;;;;;4.32;60.07;97053.62;1772416;79;21255;-53
2021/04/24 00:21:32;;;;;;;5.20;3.80;;;;;;;4.34;59.81;97055.70;1750802;80;21231;-52
2021/04/24 00:24:03;;;;;;;9.30;4.03;;;;;;;4.32;59.61;97051.05;1761913;79;21212;-52
2021/04/24 00:26:32;;;;;;;7.42;3.77;;;;;;;4.31;59.87;97054.53;1777374;79;21372;-52
2021/04/24 00:29:01;;;;;;;6.28;3.90;;;;;;;4.27;59.94;97048.28;1759518;80;21644;-52
2021/04/24 00:31:30;;;;;;;5.58;3.62;;;;;;;4.26;59.49;97055.59;1761703;79;26690;-52
2021/04/24 00:33:58;;;;;;;6.62;3.67;;;;;;;4.30;59.72;97054.59;1783870;79;21158;-53
2021/04/24 00:36:26;;;;;;;5.20;3.80;;;;;;;4.37;59.30;97052.16;1775374;79;21066;-53
2021/04/24 00:38:53;;;;;;;3.98;3.58;;;;;;;4.46;59.26;97050.96;1768059;79;21196;-52
2021/04/24 00:41:21;;;;;;;5.60;3.85;;;;;;;4.51;59.40;97050.36;1769984;79;21118;-52
2021/04/24 00:43:49;;;;;;;5.90;3.87;;;;;;;4.52;59.17;97061.02;1779494;79;21100;-53
2021/04/24 00:46:18;;;;;;;6.78;3.83;;;;;;;4.48;59.03;97059.02;1759320;79;21129;-53
2021/04/24 00:48:47;;;;;;;5.28;4.05;;;;;;;4.43;58.85;97050.65;1741143;80;21115;-52
2021/04/24 00:51:15;;;;;;;5.78;3.42;;;;;;;4.31;58.40;97053.67;1769418;79;22348;-53
2021/04/24 00:53:43;;;;;;;6.75;4.22;;;;;;;4.24;58.87;97055.22;1757083;79;21561;-53
2021/04/24 00:56:11;;;;;;;7.53;4.00;;;;;;;4.24;59.38;97060.35;1777156;79;21533;-52
2021/04/24 00:58:39;;;;;;;4.55;3.77;;;;;;;4.21;59.48;97060.46;1776568;79;21167;-53
2021/04/24 01:01:07;;;;;;;4.90;4.40;;;;;;;4.16;59.43;97059.80;1776987;79;21156;-54
2021/04/24 01:03:35;;;;;;;11.70;5.57;;;;;;;4.07;59.94;97063.98;1764486;79;22444;-52
2021/04/24 01:06:04;;;;;;;7.75;4.90;;;;;;;4.09;60.12;97067.33;1765558;79;26891;-53
2021/04/24 01:08:32;;;;;;;6.12;4.55;;;;;;;4.05;59.56;97061.92;1751711;80;21169;-54
2021/04/24 01:11:02;;;;;;;10.78;4.92;;;;;;;4.00;59.70;97063.38;1769700;80;21087;-52
2021/04/24 01:13:31;;;;;;;6.85;4.03;;;;;;;3.99;60.12;97070.67;1762418;80;21160;-52
2021/04/24 01:15:58;;;;;;;5.75;3.83;;;;;;;4.00;59.57;97067.69;1700527;82;21496;-52
2021/04/24 01:18:26;;;;;;;6.25;4.00;;;;;;;3.98;58.99;97066.87;1761877;80;21064;-52
2021/04/24 01:20:54;;;;;;;5.30;3.90;;;;;;;3.94;59.12;97059.73;1757789;80;21081;-53
2021/04/24 01:23:22;;;;;;;5.65;3.62;;;;;;;3.95;59.16;97065.28;1736187;80;21581;-53
2021/04/24 01:25:50;;;;;;;5.40;3.72;;;;;;;3.96;58.88;97060.97;1726881;81;21573;-52
2021/04/24 01:28:18;;;;;;;5.17;4.03;;;;;;;3.97;58.78;97059.63;1742814;80;21592;-53
2021/04/24 01:30:47;;;;;;;6.50;3.75;;;;;;;3.95;58.83;97059.31;1760865;80;21164;-53
2021/04/24 01:33:15;;;;;;;4.97;3.05;;;;;;;3.96;59.12;97060.52;1764947;80;21130;-52
2021/04/24 01:35:44;;;;;;;4.60;3.92;;;;;;;3.95;59.05;97061.88;1736059;80;21074;-55
2021/04/24 01:38:11;;;;;;;4.00;3.30;;;;;;;3.96;59.07;97062.25;1741464;80;21212;-52
2021/04/24 01:40:40;;;;;;;8.08;3.70;;;;;;;3.98;58.92;97057.89;1742670;80;21381;-52
2021/04/24 01:43:08;;;;;;;4.58;3.47;;;;;;;3.98;58.88;97062.60;1722082;80;21644;-52
2021/04/24 01:45:36;;;;;;;5.20;3.67;;;;;;;4.01;59.12;97067.63;1735452;80;21558;-52
2021/04/24 01:48:06;;;;;;;6.60;3.83;;;;;;;4.06;59.33;97066.15;1751219;80;21124;-52
2021/04/24 01:50:41;;;;;;;5.80;3.87;;;;;;;4.11;59.04;97071.98;1747146;80;21133;-52
2021/04/24 01:53:11;;;;;;;4.40;3.60;;;;;;;4.15;59.01;97074.81;1763339;80;21370;-52
2021/04/24 01:55:40;;;;;;;4.50;3.37;;;;;;;4.18;58.83;97077.73;1751008;80;21146;-52
2021/04/24 01:58:13;;;;;;;4.55;3.45;;;;;;;4.22;58.90;97076.24;1736927;80;21109;-52
2021/04/24 02:00:49;;;;;;;5.45;3.72;;;;;;;4.33;58.90;97075.86;1720350;81;21168;-52
2021/04/24 02:03:16;;;;;;;4.78;4.15;;;;;;;4.33;58.90;97075.86;1691421;82;21561;-52
2021/04/24 02:05:45;;;;;;;9.25;3.83;;;;;;;4.32;58.92;97077.20;1700190;82;21489;-53
2021/04/24 02:08:24;;;;;;;5.03;3.92;;;;;;;4.32;58.92;97077.20;1689751;83;21107;-51
2021/04/24 02:10:54;;;;;;;5.33;3.97;;;;;;;4.34;59.11;97077.97;1693750;83;21593;-52
2021/04/24 02:13:28;;;;;;;6.40;4.22;;;;;;;4.38;59.32;97072.66;1680270;83;21259;-51
2021/04/24 02:15:57;;;;;;;4.28;3.87;;;;;;;4.39;59.02;97070.49;1678573;83;21495;-52
2021/04/24 02:18:26;;;;;;;4.67;3.77;;;;;;;4.36;59.01;97073.17;1695383;83;21382;-53
2021/04/24 02:20:54;;;;;;;6.40;4.15;;;;;;;4.35;58.59;97071.95;1696434;83;28932;-51
2021/04/24 02:23:24;;;;;;;76.90;40.25;;;;;;;4.35;58.78;97071.95;1688256;83;21086;-50
2021/04/24 02:25:52;;;;;;;18.92;11.12;;;;;;;4.39;58.80;97077.34;1685295;83;23381;-52
2021/04/24 02:28:19;;;;;;;69.50;18.07;;;;;;;4.39;58.42;97077.34;1687379;83;21181;-52
2021/04/24 02:30:47;;;;;;;16.10;6.78;;;;;;;4.41;58.36;97077.69;1688418;83;21604;-51
2021/04/24 02:33:15;;;;;;;6.60;4.80;;;;;;;4.35;58.08;97075.34;1689154;83;21242;-52
2021/04/24 02:35:50;;;;;;;6.60;4.22;;;;;;;4.26;58.23;97078.70;1685813;83;21146;-56
2021/04/24 02:38:21;;;;;;;4.80;3.85;;;;;;;4.21;58.41;97082.72;1673765;84;21162;-52
2021/04/24 02:40:49;;;;;;;3.80;3.40;;;;;;;4.13;58.25;97080.88;1693004;83;21174;-53
2021/04/24 02:43:17;;;;;;;6.85;3.72;;;;;;;4.03;58.89;97088.12;1743738;80;21466;-53
2021/04/24 02:45:46;;;;;;;5.20;3.92;;;;;;;4.00;58.64;97088.23;1743589;80;21078;-53
2021/04/24 02:48:17;;;;;;;6.12;4.58;;;;;;;3.95;59.12;97084.98;1727800;82;21129;-52
2021/04/24 02:50:47;;;;;;;5.12;3.95;;;;;;;3.96;59.60;97079.77;1728864;81;21489;-52
2021/04/24 02:53:15;;;;;;;;;;;;;;;3.97;59.64;97075.04;1707080;82;21312;-51
2021/04/24 02:55:44;;;;;;;6.17;4.00;;;;;;;3.95;59.33;97083.25;1689679;83;20749;-51
2021/04/24 02:58:12;;;;;;;5.22;3.85;;;;;;;3.91;59.06;97075.70;1688356;83;21122;-51
2021/04/24 03:00:40;;;;;;;5.95;4.00;;;;;;;3.81;58.61;97081.61;1692664;83;21216;-51
2021/04/24 03:03:11;;;;;;;6.45;4.10;;;;;;;3.79;58.89;97081.67;1695333;83;21615;-52
2021/04/24 03:05:39;;;;;;;4.95;3.95;;;;;;;3.78;58.68;97083.86;1685612;83;21241;-52
2021/04/24 03:08:09;;;;;;;6.50;3.92;;;;;;;3.82;58.99;97082.02;1671762;83;21488;-52
2021/04/24 03:10:38;;;;;;;4.70;3.90;;;;;;;3.86;59.04;97085.71;1689618;83;21166;-52
2021/04/24 03:13:06;;;;;;;;;;;;;;;3.89;58.20;97089.05;1703285;82;21244;-52
2021/04/24 03:15:34;;;;;;;8.18;4.17;;;;;;;3.89;57.66;97086.03;1672945;83;20319;-51
2021/04/24 03:18:04;;;;;;;6.75;3.95;;;;;;;3.90;57.42;97092.84;1679074;83;21660;-52
2021/04/24 03:20:31;;;;;;;6.72;4.28;;;;;;;3.94;57.44;97093.57;1657269;83;22322;-51
2021/04/24 03:23:00;;;;;;;6.37;4.07;;;;;;;4.01;56.84;97098.86;1696969;83;21137;-52
2021/04/24 03:25:28;;;;;;;6.17;4.35;;;;;;;4.05;56.67;97095.31;1738018;80;21357;-52
2021/04/24 03:27:56;;;;;;;5.95;4.25;;;;;;;4.07;56.51;97094.80;1749733;80;25865;-52
2021/04/24 03:30:26;;;;;;;5.30;3.85;;;;;;;4.14;56.75;97100.55;1727762;80;21129;-52
2021/04/24 03:32:54;;;;;;;6.15;3.85;;;;;;;4.22;56.30;97097.25;1675276;82;21403;-53
2021/04/24 03:35:22;;;;;;;5.60;4.20;;;;;;;4.53;56.13;97102.53;1702238;82;21153;-51
2021/04/24 03:37:50;;;;;;;5.73;4.20;;;;;;;4.53;56.13;97102.53;1704271;82;21196;-52
2021/04/24 03:40:18;;;;;;;7.55;4.40;;;;;;;4.75;55.79;97109.81;1705776;83;21685;-52
2021/04/24 03:42:47;;;;;;;5.42;4.70;;;;;;;5.01;55.23;97108.39;1688900;82;21101;-52
2021/04/24 03:45:20;;;;;;;10.07;4.83;;;;;;;5.28;54.41;97107.27;1677567;83;21160;-52
2021/04/24 03:47:51;;;;;;;6.87;4.55;;;;;;;5.46;53.99;97109.54;1745489;80;21193;-52
2021/04/24 03:50:19;;;;;;;5.03;4.17;;;;;;;5.53;53.71;97110.94;1749838;80;21172;-52
2021/04/24 03:52:47;;;;;;;;;;;;;;;5.51;53.42;97115.33;1753242;80;21599;-52
2021/04/24 03:55:15;;;;;;;7.28;4.90;;;;;;;5.49;53.37;97115.84;1734970;80;20309;-52
2021/04/24 03:57:47;;;;;;;10.00;4.97;;;;;;;5.58;53.40;97115.08;1744343;80;21363;-53
2021/04/24 04:00:18;;;;;;;7.25;5.00;;;;;;;5.72;53.23;97123.03;1744708;80;21244;-52
2021/04/24 04:05:35;;;;;;;6.07;4.90;;;;;;;6.81;51.23;97130.28;1868320;76;25658;-52
2021/04/24 04:08:04;;;;;;;9.38;5.58;;;;;;;7.27;49.79;97128.08;1855174;77;21736;-54
2021/04/24 04:10:33;;;;;;;7.75;4.92;;;;;;;7.74;48.59;97126.63;1851608;77;21529;-53
2021/04/24 04:13:04;;;;;;;8.18;5.22;;;;;;;8.23;46.84;97127.14;1848476;77;21057;-53
2021/04/24 04:15:32;;;;;;;7.80;5.60;;;;;;;8.76;46.09;97131.21;1853210;77;21068;-53
2021/04/24 04:18:10;;;;;;;10.68;6.70;;;;;;;9.40;45.03;97130.66;1845451;77;21060;-53
2021/04/24 04:20:44;;;;;;;10.95;6.90;;;;;;;10.08;43.61;97127.17;1850105;77;21579;-53
2021/04/24 04:23:12;;;;;;;8.28;5.80;;;;;;;10.75;41.98;97130.02;1844688;77;21368;-53
2021/04/24 04:25:42;;;;;;;10.68;6.03;;;;;;;11.38;40.49;97123.42;1852608;77;21060;-53
2021/04/24 04:28:10;;;;;;;7.53;6.00;;;;;;;11.94;39.13;97124.52;1855547;77;21060;-53
2021/04/24 04:30:39;;;;;;;8.88;5.87;;;;;;;12.42;38.20;97127.77;1852913;77;21480;-53
2021/04/24 04:33:08;;;;;;;8.03;5.40;;;;;;;12.93;36.87;97122.91;1824628;77;21146;-53
2021/04/24 04:35:37;;;;;;;7.45;4.70;;;;;;;13.47;35.98;97129.47;1853560;77;21520;-53
2021/04/24 04:38:05;;;;;;;6.78;5.08;;;;;;;13.99;35.12;97128.63;1852661;77;21140;-53
2021/04/24 04:40:33;;;;;;;6.33;4.90;;;;;;;14.45;34.21;97131.62;1848613;77;21037;-53
2021/04/24 04:43:00;;;;;;;7.53;4.92;;;;;;;14.81;33.45;97131.03;1854349;77;21061;-53
2021/04/24 04:45:28;;;;;;;7.58;4.70;;;;;;;15.18;32.51;97132.03;1822020;77;21032;-54
2021/04/24 04:47:57;;;;;;;5.83;3.80;;;;;;;15.56;31.46;97124.61;1849966;77;21466;-53
2021/04/24 04:50:29;;;;;;;5.15;4.03;;;;;;;15.81;30.74;97122.97;1844082;77;21597;-53
2021/04/24 04:52:58;;;;;;;4.92;3.90;;;;;;;16.15;29.65;97121.91;1842220;77;21556;-54
2021/04/24 04:55:26;;;;;;;;;;;;;;;16.34;29.45;97124.62;1845582;77;21157;-53
2021/04/24 04:57:55;;;;;;;5.50;3.90;;;;;;;16.64;29.21;97126.87;1852776;77;20275;-54
2021/04/24 05:00:24;;;;;;;3.92;3.50;;;;;;;17.04;28.71;97121.27;1844835;77;21352;-50
2021/04/24 05:02:52;;;;;;;4.37;3.67;;;;;;;17.47;27.87;97119.59;1846797;77;21048;-54
2021/04/24 05:05:20;;;;;;;4.87;3.70;;;;;;;17.91;26.97;97112.61;1834423;77;21085;-54
2021/04/24 05:07:49;;;;;;;5.12;3.40;;;;;;;18.22;25.83;97116.30;1851934;77;21033;-55
2021/04/24 05:10:23;;;;;;;5.35;3.70;;;;;;;18.41;25.54;97123.30;1854134;77;21120;-54
2021/04/24 05:12:52;;;;;;;6.53;3.42;;;;;;;18.49;24.90;97126.03;1854265;77;21353;-54
2021/04/24 05:15:21;;;;;;;5.22;3.72;;;;;;;18.71;24.28;97120.87;1854954;77;21485;-54
2021/04/24 05:17:49;;;;;;;11.55;5.17;;;;;;;18.97;24.23;97119.39;1852621;77;21132;-54
2021/04/24 05:20:17;;;;;;;5.55;3.75;;;;;;;19.39;23.41;97122.75;1843018;77;21105;-53
2021/04/24 05:22:46;;;;;;;4.60;3.60;;;;;;;19.62;22.98;97116.06;1855551;77;21170;-53
2021/04/24 05:25:16;;;;;;;5.08;3.55;;;;;;;19.82;22.25;97114.11;1856139;77;21421;-53
2021/04/24 05:27:46;;;;;;;27.82;19.67;;;;;;;20.02;21.99;97112.09;1849809;77;21103;-54
2021/04/24 05:30:17;;;;;;;25.92;15.15;;;;;;;20.13;21.76;97120.23;1855992;77;21199;-54
2021/04/24 05:32:45;;;;;;;6.45;4.33;;;;;;;20.22;21.24;97119.29;1856311;77;21124;-53
2021/04/24 05:35:14;;;;;;;6.85;3.30;;;;;;;20.35;21.26;97125.95;1858144;77;21101;-53
2021/04/24 05:37:44;;;;;;;5.58;3.12;;;;;;;20.67;21.33;97123.98;1854302;77;21265;-58
2021/04/24 05:40:13;;;;;;;4.28;3.65;;;;;;;21.10;20.69;97124.80;1855551;77;21184;-53
2021/04/24 05:42:42;;;;;;;4.78;3.62;;;;;;;21.52;20.21;97124.88;1825445;77;21472;-53
2021/04/24 05:45:15;;;;;;;4.47;2.85;;;;;;;21.88;19.59;97126.19;1810724;77;21116;-55
2021/04/24 05:47:45;;;;;;;;;;;;;;;22.15;18.57;97127.31;1820223;77;21029;-53
2021/04/24 05:50:21;;;;;;;3.62;2.30;;;;;;;22.34;18.00;97126.16;1822230;77;21373;-53
2021/04/24 05:52:50;;;;;;;3.35;2.00;;;;;;;22.29;17.76;97129.30;1840775;76;21076;-54
2021/04/24 05:55:21;;;;;;;2.37;2.10;;;;;;;22.32;17.32;97129.44;1814747;77;21175;-59
2021/04/24 05:57:49;;;;;;;2.98;2.20;;;;;;;22.31;16.88;97130.45;1848024;77;21060;-53
2021/04/24 06:00:20;;;;;;;2.40;1.87;;;;;;;21.82;17.61;97131.31;1836543;77;21094;-53
2021/04/24 06:02:48;;;;;;;2.42;2.17;;;;;;;21.66;17.11;97127.70;1849384;75;22196;-53
2021/04/24 06:05:18;;;;;;;2.75;2.30;;;;;;;21.56;17.17;97121.73;1844793;77;21552;-53
2021/04/24 06:07:48;;;;;;;3.02;2.30;;;;;;;21.63;16.90;97124.56;1822499;78;21465;-53
2021/04/24 06:10:18;;;;;;;2.52;1.82;;;;;;;21.57;16.99;97130.50;1843384;77;21560;-53
2021/04/24 06:12:47;;;;;;;3.52;2.02;;;;;;;21.74;17.15;97130.81;1854953;77;21089;-53
2021/04/24 06:15:18;;;;;;;2.17;1.60;;;;;;;22.09;16.87;97128.82;1804534;78;22269;-53
2021/04/24 06:17:45;;;;;;;3.42;2.30;;;;;;;22.57;16.42;97127.57;1835533;77;21100;-53
2021/04/24 06:20:15;;;;;;;3.37;2.00;;;;;;;23.06;16.11;97126.02;1795049;78;21171;-54
2021/04/24 06:22:43;;;;;;;3.75;1.80;;;;;;;23.49;15.40;97121.14;1826283;78;21061;-53
2021/04/24 06:25:16;;;;;;;1.92;1.70;;;;;;;23.62;15.38;97120.55;1824892;77;21057;-52
2021/04/24 06:27:45;;;;;;;5.75;2.00;;;;;;;23.78;15.11;97120.08;1860190;77;22249;-52
2021/04/24 06:30:16;;;;;;;3.47;1.90;;;;;;;23.74;14.87;97113.50;1848737;77;21597;-52
2021/04/24 06:32:46;;;;;;;3.47;1.50;;;;;;;23.50;14.64;97111.36;1833444;77;21089;-52
2021/04/24 06:35:14;;;;;;;2.40;1.98;;;;;;;23.50;14.79;97110.88;1826592;78;21564;-52
2021/04/24 06:37:43;;;;;;;2.12;1.77;;;;;;;23.81;14.89;97105.15;1827364;77;21042;-52
2021/04/24 06:40:14;;;;;;;2.40;1.90;;;;;;;24.18;14.64;97103.52;1824004;77;21353;-53
2021/04/24 06:42:43;;;;;;;3.83;1.82;;;;;;;24.44;14.20;97101.23;1791497;78;21991;-51
2021/04/24 06:45:14;;;;;;;4.25;2.17;;;;;;;24.63;14.17;97108.33;1823249;77;21065;-52
2021/04/24 06:47:41;;;;;;;4.10;1.95;;;;;;;24.69;13.85;97100.97;1841692;77;21464;-52
2021/04/24 06:50:12;;;;;;;2.17;1.77;;;;;;;24.66;13.63;97100.00;1840504;77;21076;-52
2021/04/24 06:52:41;;;;;;;3.65;1.95;;;;;;;24.29;13.61;97086.31;1858398;77;21364;-52
2021/04/24 06:55:14;;;;;;;2.20;1.95;;;;;;;23.94;13.76;97091.33;1828133;77;21064;-52
2021/04/24 06:57:42;;;;;;;5.12;2.27;;;;;;;23.92;14.09;97092.02;1859176;77;21036;-52
2021/04/24 07:00:12;;;;;;;4.62;1.82;;;;;;;24.16;13.71;97090.92;1860294;77;21045;-53
2021/04/24 07:02:39;;;;;;;3.15;2.00;;;;;;;24.35;13.72;97087.73;1860216;77;21048;-52
2021/04/24 07:05:11;;;;;;;4.03;2.98;;;;;;;24.66;13.58;97089.91;1860086;77;21254;-52
2021/04/24 07:07:41;;;;;;;4.92;2.08;;;;;;;24.99;13.76;97090.28;1860127;77;21080;-52
2021/04/24 07:10:11;;;;;;;3.60;2.15;;;;;;;25.03;13.20;97086.74;1827117;77;21044;-53
2021/04/24 07:12:40;;;;;;;4.17;1.60;;;;;;;24.75;13.08;97082.98;1837116;77;21062;-52
2021/04/24 07:15:09;;;;;;;3.52;2.05;;;;;;;24.53;13.14;97089.20;1826551;78;21101;-54
2021/04/24 07:17:38;;;;;;;2.20;1.80;;;;;;;24.41;13.47;97083.54;1826670;77;21076;-52
2021/04/24 07:20:08;;;;;;;1.92;1.80;;;;;;;24.57;13.29;97088.68;1826594;78;21076;-54
2021/04/24 07:22:37;;;;;;;4.42;2.10;;;;;;;24.68;13.32;97085.23;1826733;77;21132;-55
2021/04/24 07:25:06;;;;;;;3.40;2.30;;;;;;;24.75;13.25;97086.12;1826594;77;21592;-55
2021/04/24 07:27:34;;;;;;;3.77;2.42;;;;;;;24.95;13.22;97073.07;1823376;77;21599;-60
2021/04/24 07:30:06;;;;;;;3.75;2.17;;;;;;;25.20;13.27;97072.72;1822367;78;21186;-58
2021/04/24 07:32:34;;;;;;;5.42;2.10;;;;;;;25.32;13.43;97068.08;1793296;78;21496;-59
2021/04/24 07:35:01;;;;;;;2.10;1.80;;;;;;;25.41;13.35;97064.80;1846021;75;21480;-59
2021/04/24 07:37:29;;;;;;;2.47;2.17;;;;;;;25.27;13.15;97067.02;1820792;77;21025;-59
2021/04/24 07:39:57;;;;;;;3.50;2.55;;;;;;;24.88;13.24;97070.86;1849132;77;21575;-59
2021/04/24 07:42:25;;;;;;;3.87;2.80;;;;;;;24.43;13.17;97062.44;1830971;77;21857;-60
2021/04/24 07:44:53;;;;;;;3.50;3.20;;;;;;;24.34;13.47;97067.55;1826689;77;21156;-59
2021/04/24 07:47:21;;;;;;;3.30;2.47;;;;;;;24.56;13.39;97059.68;1823458;77;21050;-58
2021/04/24 07:49:50;;;;;;;3.92;2.92;;;;;;;24.78;13.64;97055.23;1823641;78;21049;-56
2021/04/24 07:52:19;;;;;;;3.50;3.17;;;;;;;24.95;13.72;97055.82;1823280;78;21105;-56
2021/04/24 07:54:48;;;;;;;3.65;3.25;;;;;;;24.54;13.33;97058.99;1857159;77;21331;-57
2021/04/24 07:57:15;;;;;;;5.92;2.90;;;;;;;24.04;13.79;97064.86;1835309;77;26416;-57
2021/04/24 07:59:44;;;;;;;6.78;2.95;;;;;;;24.00;14.09;97058.80;1826447;78;21575;-57
2021/04/24 08:02:15;;;;;;;3.95;2.95;;;;;;;23.97;13.89;97056.00;1823725;77;21480;-57
2021/04/24 08:04:43;;;;;;;4.72;3.45;;;;;;;23.95;14.36;97050.55;1841563;76;21163;-57
2021/04/24 08:07:12;;;;;;;5.03;3.47;;;;;;;24.02;14.52;97059.44;1835404;77;22244;-58
2021/04/24 08:09:42;;;;;;;4.58;2.50;;;;;;;24.13;14.37;97061.64;1835430;76;21048;-57
2021/04/24 08:12:11;;;;;;;2.65;2.20;;;;;;;24.36;14.21;97052.27;1782656;80;21072;-58
2021/04/24 08:14:39;;;;;;;3.35;2.10;;;;;;;24.41;14.34;97052.53;1793965;79;21064;-57
2021/04/24 08:17:07;;;;;;;6.50;2.00;;;;;;;24.46;13.80;97055.95;1774557;79;21112;-57
2021/04/24 08:19:35;;;;;;;3.55;2.27;;;;;;;24.39;14.15;97051.89;1774527;79;21585;-57
2021/04/24 08:22:04;;;;;;;3.80;2.50;;;;;;;24.18;14.25;97046.52;1783233;79;21493;-57
2021/04/24 08:24:32;;;;;;;;;;;;;;;23.73;15.32;97046.43;1749617;79;21603;-56
2021/04/24 08:27:00;;;;;;;3.45;2.65;;;;;;;23.63;15.27;97048.00;1805751;79;20217;-57
2021/04/24 08:29:28;;;;;;;4.53;2.35;;;;;;;23.17;15.34;97049.89;1801912;79;21107;-61
2021/04/24 08:31:56;;;;;;;4.20;2.00;;;;;;;22.68;15.23;97057.59;1791451;79;21374;-58
2021/04/24 08:34:25;;;;;;;83.90;58.83;;;;;;;22.08;15.70;97057.13;1775010;79;21592;-60
2021/04/24 08:36:53;;;;;;;117.37;75.30;;;;;;;21.85;16.66;97052.55;1781042;79;21464;-57
2021/04/24 08:39:22;;;;;;;8.08;5.42;;;;;;;21.69;16.97;97053.90;1786225;79;21108;-57
2021/04/24 08:41:51;;;;;;;6.83;2.25;;;;;;;21.59;16.21;97052.75;1776362;79;21210;-56
2021/04/24 08:44:19;;;;;;;2.55;1.85;;;;;;;21.55;16.42;97047.49;1799834;79;21376;-58
2021/04/24 08:46:49;;;;;;;2.08;1.85;;;;;;;21.45;16.50;97047.62;1803245;79;21437;-58
2021/04/24 08:49:26;;;;;;;2.40;2.02;;;;;;;21.01;16.46;97040.52;1774148;80;21163;-58
2021/04/24 08:51:54;;;;;;;3.70;2.15;;;;;;;20.55;17.21;97049.59;1777368;79;21191;-58
2021/04/24 08:54:23;;;;;;;3.30;2.37;;;;;;;20.09;17.61;97049.08;1777657;79;21484;-56
2021/04/24 08:56:50;;;;;;;;;;;;;;;19.63;17.61;97047.12;1780241;79;21143;-56
2021/04/24 08:59:18;;;;;;;4.58;2.83;;;;;;;19.01;18.41;97051.05;1806159;79;20243;-56
2021/04/24 09:01:46;;;;;;;3.33;2.30;;;;;;;18.46;18.85;97047.99;1786147;79;21152;-57
2021/04/24 09:04:13;;;;;;;3.55;2.27;;;;;;;17.63;19.67;97046.88;1798984;79;21053;-57
2021/04/24 09:06:41;;;;;;;5.58;3.60;;;;;;;17.14;20.00;97047.41;1790715;79;21069;-57
2021/04/24 09:09:11;;;;;;;3.92;2.27;;;;;;;16.98;19.77;97037.46;1787506;79;21199;-56
2021/04/24 09:11:46;;;;;;;6.65;4.05;;;;;;;16.25;20.00;97034.25;1776647;79;21084;-56
2021/04/24 09:14:16;;;;;;;8.45;4.42;;;;;;;15.55;21.82;97036.17;1767605;81;21187;-56
2021/04/24 09:16:44;;;;;;;5.12;3.15;;;;;;;15.50;22.15;97044.06;1741381;81;21078;-56
2021/04/24 09:19:33;;;;;;;10.82;6.72;;;;;;;15.64;22.34;97041.09;1771536;81;21077;-57
2021/04/24 09:22:20;;;;;;;5.37;3.95;;;;;;;16.33;22.07;97033.11;1780910;80;21372;-57
2021/04/24 09:24:54;;;;;;;5.17;2.37;;;;;;;16.90;21.60;97026.84;1787247;79;21484;-57
2021/04/24 09:27:47;;;;;;;3.20;1.55;;;;;;;16.92;21.21;97030.98;1787470;80;21053;-58
2021/04/24 09:30:27;;;;;;;3.95;2.08;;;;;;;16.78;21.74;97028.73;1779057;80;21151;-58
2021/04/24 09:33:01;;;;;;;3.75;2.20;;;;;;;16.63;21.20;97032.69;1784002;80;21160;-57
2021/04/24 09:35:40;;;;;;;14.00;2.40;;;;;;;16.40;22.04;97028.16;1787479;80;21478;-57
2021/04/24 09:38:09;;;;;;;3.75;2.40;;;;;;;16.33;22.13;97026.09;1785225;80;21136;-58
2021/04/24 09:40:38;;;;;;;3.62;2.20;;;;;;;16.27;22.47;97028.42;1785289;80;21081;-58
2021/04/24 09:43:07;;;;;;;4.78;2.90;;;;;;;16.54;22.08;97029.09;1766689;81;21134;-58
2021/04/24 09:45:40;;;;;;;;;;;;;;;16.96;22.26;97026.30;1772982;80;21152;-60
2021/04/24 09:48:25;;;;;;;4.37;2.27;;;;;;;17.07;21.79;97009.58;1756246;81;21357;-58
2021/04/24 09:50:53;;;;;;;2.60;1.98;;;;;;;17.10;21.52;97008.84;1759464;80;21072;-57
2021/04/24 09:53:23;;;;;;;3.00;1.80;;;;;;;16.88;21.16;97011.73;1770816;81;21092;-57
2021/04/24 09:55:54;;;;;;;3.65;2.02;;;;;;;16.34;22.19;97018.57;1739202;81;21077;-57
2021/04/24 09:58:35;;;;;;;2.77;1.87;;;;;;;15.98;22.70;97018.17;1770877;81;21492;-57
2021/04/24 10:01:27;;;;;;;3.45;1.80;;;;;;;15.70;23.12;97018.36;1775400;80;21477;-58
2021/04/24 10:03:55;;;;;;;2.40;1.75;;;;;;;15.44;23.29;97017.93;1785797;79;21124;-57
2021/04/24 10:06:30;;;;;;;2.52;2.00;;;;;;;15.20;23.95;97024.25;1792369;78;21485;-58
2021/04/24 10:09:13;;;;;;;4.33;2.05;;;;;;;14.99;24.04;97027.32;1797111;79;21037;-57
2021/04/24 10:11:47;;;;;;;4.72;2.30;;;;;;;14.60;24.67;97021.73;1797139;79;21041;-58
2021/04/24 10:14:44;;;;;;;5.20;2.30;;;;;;;14.24;25.32;97019.27;1764601;79;21108;-58
2021/04/24 10:17:19;;;;;;;7.22;2.17;;;;;;;13.92;25.92;97033.05;1764158;79;21522;-58
2021/04/24 10:19:48;;;;;;;8.95;3.47;;;;;;;13.65;26.47;97050.35;1764007;81;21153;-57
2021/04/24 10:22:21;;;;;;;6.67;3.72;;;;;;;13.30;30.29;97066.80;1767613;79;21188;-58
2021/04/24 10:24:49;;;;;;;6.67;4.00;;;;;;;12.74;33.14;97075.20;1797101;79;21068;-56
2021/04/24 10:27:20;;;;;;;9.90;4.28;;;;;;;12.12;35.44;97074.77;1797186;79;21262;-56
2021/04/24 10:29:48;;;;;;;8.85;4.55;;;;;;;11.58;37.19;97066.23;1797091;79;21541;-56
2021/04/24 10:32:17;;;;;;;7.87;4.67;;;;;;;11.24;38.44;97068.94;1771139;79;21140;-56
2021/04/24 10:34:44;;;;;;;8.40;4.42;;;;;;;11.05;39.09;97072.73;1764092;81;21177;-56
2021/04/24 10:37:13;;;;;;;8.67;4.87;;;;;;;10.93;40.01;97080.48;1764251;81;21078;-56
2021/04/24 10:39:41;;;;;;;7.72;4.83;;;;;;;10.77;40.90;97078.88;1763933;81;21481;-56
2021/04/24 10:42:21;;;;;;;12.20;5.30;;;;;;;10.55;41.60;97080.67;1783843;79;21089;-56
2021/04/24 10:44:58;;;;;;;9.90;4.70;;;;;;;10.37;42.27;97087.84;1797160;79;21128;-56
2021/04/24 10:47:42;;;;;;;9.63;5.83;;;;;;;10.29;43.01;97103.00;1763610;79;21548;-58
2021/04/24 10:50:16;;;;;;;8.60;5.47;;;;;;;10.21;43.76;97111.25;1819995;78;21080;-56
2021/04/24 10:52:45;;;;;;;8.03;4.87;;;;;;;10.20;44.57;97114.78;1779004;80;21406;-56
2021/04/24 10:55:26;;;;;;;9.53;5.03;;;;;;;10.20;44.71;97108.30;1770967;80;23127;-59
2021/04/24 10:58:00;;;;;;;7.90;4.17;;;;;;;10.27;44.64;97113.95;1763358;80;21165;-57
2021/04/24 11:00:36;;;;;;;6.65;4.35;;;;;;;10.31;44.71;97109.78;1739611;80;21129;-57
2021/04/24 11:03:04;;;;;;;6.97;4.20;;;;;;;10.35;45.31;97107.86;1783855;80;21153;-57
2021/04/24 11:05:42;;;;;;;7.90;4.87;;;;;;;10.25;45.71;97124.88;1788619;80;22216;-58
2021/04/24 11:08:25;;;;;;;8.38;4.47;;;;;;;10.21;46.96;97126.80;1792006;79;21092;-57
2021/04/24 11:11:17;;;;;;;5.30;4.08;;;;;;;10.13;47.46;97134.22;1794053;79;21162;-58
2021/04/24 11:13:55;;;;;;;7.58;5.30;;;;;;;10.07;48.02;97132.84;1785049;79;21185;-58
2021/04/24 11:16:32;;;;;;;6.45;4.62;;;;;;;9.98;49.54;97133.84;1773585;80;21089;-58
2021/04/24 11:18:54;;;;;;;6.47;3.62;;;;;;;9.89;50.20;97148.19;1770780;79;21570;-57
2021/04/24 11:21:25;;;;;;;4.40;3.27;;;;;;;9.88;49.46;97143.45;1796480;79;21080;-55
2021/04/24 11:23:59;;;;;;;6.12;3.50;;;;;;;9.94;48.99;97139.67;1795259;78;21056;-55
2021/04/24 11:26:36;;;;;;;6.08;3.72;;;;;;;10.12;46.51;97139.88;1784682;79;21137;-55
2021/04/24 11:29:08;;;;;;;4.05;3.22;;;;;;;10.28;44.88;97126.83;1765915;81;21143;-55
2021/04/24 11:32:05;;;;;;;6.45;3.47;;;;;;;10.37;44.08;97135.00;1793737;80;21542;-55
2021/04/24 11:34:45;;;;;;;5.17;3.20;;;;;;;10.44;44.25;97145.36;1793747;80;21076;-57
2021/04/24 11:37:23;;;;;;;6.40;3.40;;;;;;;10.63;44.37;97147.20;1764064;80;20992;-56
2021/04/24 11:40:32;;;;;;;4.17;2.90;;;;;;;10.84;44.58;97149.41;1798407;78;21037;-56
2021/04/24 11:43:08;;;;;;;3.70;2.72;;;;;;;11.03;44.66;97144.69;1800099;78;21174;-56
2021/04/24 11:45:53;;;;;;;4.35;2.90;;;;;;;11.26;44.09;97140.27;1765808;81;22157;-57
2021/04/24 11:48:51;;;;;;;3.47;2.90;;;;;;;11.35;44.11;97137.91;1766303;79;21082;-57
2021/04/24 11:51:39;;;;;;;4.28;3.37;;;;;;;11.35;44.04;97137.09;1774121;80;21093;-58
2021/04/24 11:54:25;;;;;;;5.45;3.15;;;;;;;11.40;43.92;97140.22;1773875;81;21160;-56
2021/04/24 11:56:59;;;;;;;4.37;3.25;;;;;;;11.39;43.67;97138.06;1779555;79;21464;-56
2021/04/24 11:59:30;;;;;;;8.25;5.08;;;;;;;11.44;44.08;97128.67;1754115;80;21563;-56
2021/04/24 12:02:00;;;;;;;6.35;4.42;;;;;;;11.67;44.01;97121.14;1772891;80;21156;-56
2021/04/24 12:04:32;;;;;;;6.00;4.17;;;;;;;12.02;44.16;97118.78;1766531;79;21159;-55
2021/04/24 12:07:04;;;;;;;6.65;4.45;;;;;;;12.50;43.66;97116.36;1775150;79;21093;-56